San Jose, CA (95110)

8:31 PM PDT on October 24, 2014 (GMT -0700)
San Jose Plant51 | Change Station
CLOSE
Current Station
Personal Weather Station
Location: San Jose, CA
Elevation: 102 ft
Nearby Weather Stations

Elev 102 ft 37.33 °N, 121.90 °W | Updated 16 seconds ago

Partly Cloudy
Partly Cloudy
65.0 °F
Feels Like 65.0 °F
N
3.0
Wind Variable Wind from North
Gusts 5.0 mph

Today
High -- | Low -- °F
--% Chance of Precip.
Yesterday
High -- | Low -- °F
Precip. -- in
7:24 AM 6:18 PM
New Moon, 2% visible
Pressure 29.91 in
Visibility 10.0 miles
Clouds Few 1500 ft
Dew Point 52 °F
Humidity 63%
Rainfall 0.00 in
Snow Depth Not available.
UV 0 out of 12
Pollen 2.60 out of 12
Ozone Good
PM2.5 Good
Flu Activity Sporadic
METAR KSJC 250253Z 17012KT 10SM FEW015 17/12 A2991 RMK AO2 SLP128 T01720117 53010

More Conditions Fewer Conditions

Pressure 29.91 in
Visibility 10.0 miles
Clouds Few 1500 ft
Dew Point 52 °F
Humidity 63%
Rainfall 0.00 in
Snow Depth Not available.
UV 0 out of 12
Pollen 2.60 out of 12
Ozone Good
PM2.5 Good
Flu Activity Sporadic
METAR KSJC 250253Z 17012KT 10SM FEW015 17/12 A2991 RMK AO2 SLP128 T01720117 53010

More Conditions Fewer Conditions

10-Day Weather Forecast

Almanac

Astronomy

Oct. 24, 2014 Rise Set
Actual Time 7:24 AM PDT 6:18 PM PDT
Civil Twilight 6:57 AM PDT 6:45 PM PDT
Nautical Twilight 6:27 AM PDT 7:15 PM PDT
Astronomical Twilight 5:56 AM PDT 7:46 PM PDT
Moon 8:07 AM PDT (10/24) 7:03 PM PDT (10/24)
Length of Visible Light 11h 47m
Length of Day
10h 54m
Tomorrow will be 2m 12s shorter.
New Moon, 2% of the Moon is Illuminated
Today
New Moon
Oct 30
First Quarter
Nov 6
Full
Nov 14
Last Quarter
Nov 22
New

Today's Extremes

State Highs State Lows

Community

WunderPhotos

Upload Photos

1,764,771 photos uploaded!

Nearby

Air Quality

  Air Quality AQ Index Pollutant
Yesterday Good
OZONE
Yesterday Good
PM2.5
Current Good
OZONE
Current Good
PM2.5
Friday Good
NO2
Saturday Good
OZONE
Sunday Good
OZONE
Monday Good
PM2.5
Tuesday Moderate
PM2.5
Wednesday Moderate
PM2.5

Snow Depth

Station Depth Elevation
Blue Lakes 0 in 8000 ft
Leavitt Lake 1 in 9400 ft
Echo Peak 0 in 7800 ft
Leavitt Meadows 1 in 7200 ft
Burnside Lake 0 in 8139 ft

Earthquake Activity

City Distance Mag. Time & Date
No recent earthquake activity has been reported nearby.
Minimum magnitude displayed is 2.5.

Coastal Water Temperatures

Place Temperature
No Stations Reporting

Nearby Weather Stations